Goldfield, Mississippi
Current Conditions -  °F | °C
As of 8:35 AM on Sunday 23 Nov 2014 (Local Time) from KRNV Reporting Station
Light Rain Light Rain  
Wind Chill: 59°   Ceiling: 500
Heat Index: 59°   Visibility: 7mi
Dew Point: 59°   Wind: 10mph
Humidity: 100%   Direction: 110°ESE
Pressure: 29.64"   Gusts: 17mph
Location:  33.8731°N, 90.5512°W
Report Text: KRNV 231435Z AUTO 11009G15KT 7SM -RA OVC005 15/15 A2964 RMK AO2 P0005 T01510151
Loading
Personal Weather Stations






























Interactive Weather Map New forecast layout! Learn more

10-Day Weather Forecast

Advertisements
Track Severe Weather on mobile